sensor_id;sensor_type;location;lat;lon;timestamp;P1;durP1;ratioP1;P2;durP2;ratioP2
22812;SDS011;11573;51.334;3.244;2023-02-11T00:01:10;27.13;;;7.03;;
22812;SDS011;11573;51.334;3.244;2023-02-11T00:03:42;21.25;;;5.88;;
22812;SDS011;11573;51.334;3.244;2023-02-11T00:06:09;26.45;;;6.47;;
22812;SDS011;11573;51.334;3.244;2023-02-11T00:08:37;27.75;;;6.35;;
22812;SDS011;11573;51.334;3.244;2023-02-11T00:11:05;24.20;;;6.53;;
22812;SDS011;11573;51.334;3.244;2023-02-11T00:13:33;19.50;;;7.55;;
22812;SDS011;11573;51.334;3.244;2023-02-11T00:16:04;23.50;;;6.93;;
22812;SDS011;11573;51.334;3.244;2023-02-11T00:18:36;20.65;;;6.88;;
22812;SDS011;11573;51.334;3.244;2023-02-11T00:21:07;23.65;;;6.43;;
22812;SDS011;11573;51.334;3.244;2023-02-11T00:23:36;26.40;;;6.88;;
22812;SDS011;11573;51.334;3.244;2023-02-11T00:26:03;19.88;;;6.97;;
22812;SDS011;11573;51.334;3.244;2023-02-11T00:31:09;17.02;;;6.40;;
22812;SDS011;11573;51.334;3.244;2023-02-11T00:33:37;26.88;;;7.07;;
22812;SDS011;11573;51.334;3.244;2023-02-11T00:36:06;24.42;;;7.70;;
22812;SDS011;11573;51.334;3.244;2023-02-11T00:38:35;20.95;;;7.18;;
22812;SDS011;11573;51.334;3.244;2023-02-11T00:41:02;21.77;;;7.47;;
22812;SDS011;11573;51.334;3.244;2023-02-11T00:43:29;14.10;;;7.10;;
22812;SDS011;11573;51.334;3.244;2023-02-11T00:45:57;19.25;;;6.85;;
22812;SDS011;11573;51.334;3.244;2023-02-11T00:48:24;18.88;;;6.75;;
22812;SDS011;11573;51.334;3.244;2023-02-11T00:50:51;17.52;;;6.88;;
22812;SDS011;11573;51.334;3.244;2023-02-11T00:53:18;15.80;;;6.32;;
22812;SDS011;11573;51.334;3.244;2023-02-11T00:55:45;30.05;;;7.20;;
22812;SDS011;11573;51.334;3.244;2023-02-11T00:58:12;15.73;;;6.38;;
22812;SDS011;11573;51.334;3.244;2023-02-11T01:00:40;18.27;;;6.93;;
22812;SDS011;11573;51.334;3.244;2023-02-11T01:03:08;18.80;;;6.32;;
22812;SDS011;11573;51.334;3.244;2023-02-11T01:05:35;25.42;;;8.75;;
22812;SDS011;11573;51.334;3.244;2023-02-11T01:08:02;26.05;;;7.25;;
22812;SDS011;11573;51.334;3.244;2023-02-11T01:10:29;18.13;;;6.57;;
22812;SDS011;11573;51.334;3.244;2023-02-11T01:12:57;19.42;;;6.57;;
22812;SDS011;11573;51.334;3.244;2023-02-11T01:15:24;19.25;;;6.40;;
22812;SDS011;11573;51.334;3.244;2023-02-11T01:17:51;27.27;;;6.75;;
22812;SDS011;11573;51.334;3.244;2023-02-11T01:20:21;19.33;;;6.97;;
22812;SDS011;11573;51.334;3.244;2023-02-11T01:22:49;16.88;;;6.72;;
22812;SDS011;11573;51.334;3.244;2023-02-11T01:25:16;20.33;;;7.25;;
22812;SDS011;11573;51.334;3.244;2023-02-11T01:27:44;20.00;;;6.55;;
22812;SDS011;11573;51.334;3.244;2023-02-11T01:30:11;23.50;;;7.30;;
22812;SDS011;11573;51.334;3.244;2023-02-11T01:32:39;31.00;;;7.35;;
22812;SDS011;11573;51.334;3.244;2023-02-11T01:35:07;23.10;;;7.47;;
22812;SDS011;11573;51.334;3.244;2023-02-11T01:37:34;27.23;;;7.20;;
22812;SDS011;11573;51.334;3.244;2023-02-11T01:40:03;23.85;;;8.02;;
22812;SDS011;11573;51.334;3.244;2023-02-11T01:42:33;25.83;;;7.15;;
22812;SDS011;11573;51.334;3.244;2023-02-11T01:45:00;18.67;;;6.78;;
22812;SDS011;11573;51.334;3.244;2023-02-11T01:47:47;23.92;;;7.50;;
22812;SDS011;11573;51.334;3.244;2023-02-11T01:50:17;30.90;;;7.43;;
22812;SDS011;11573;51.334;3.244;2023-02-11T01:52:45;18.92;;;6.88;;
22812;SDS011;11573;51.334;3.244;2023-02-11T01:55:14;35.20;;;8.23;;
22812;SDS011;11573;51.334;3.244;2023-02-11T01:58:01;26.85;;;8.13;;
22812;SDS011;11573;51.334;3.244;2023-02-11T02:00:32;21.73;;;7.43;;
22812;SDS011;11573;51.334;3.244;2023-02-11T02:03:10;23.25;;;7.13;;
22812;SDS011;11573;51.334;3.244;2023-02-11T02:05:54;21.80;;;7.13;;
22812;SDS011;11573;51.334;3.244;2023-02-11T02:08:59;22.48;;;7.07;;
22812;SDS011;11573;51.334;3.244;2023-02-11T02:11:34;23.35;;;6.65;;
22812;SDS011;11573;51.334;3.244;2023-02-11T02:14:02;21.92;;;7.50;;
22812;SDS011;11573;51.334;3.244;2023-02-11T02:16:31;25.17;;;7.63;;
22812;SDS011;11573;51.334;3.244;2023-02-11T02:19:13;34.97;;;7.82;;
22812;SDS011;11573;51.334;3.244;2023-02-11T02:33:09;17.55;;;7.10;;
22812;SDS011;11573;51.334;3.244;2023-02-11T02:35:57;22.33;;;6.57;;
22812;SDS011;11573;51.334;3.244;2023-02-11T02:38:54;32.65;;;7.63;;
22812;SDS011;11573;51.334;3.244;2023-02-11T02:43:57;27.25;;;5.82;;
22812;SDS011;11573;51.334;3.244;2023-02-11T02:46:26;26.65;;;6.80;;
22812;SDS011;11573;51.334;3.244;2023-02-11T02:48:57;18.00;;;6.05;;
22812;SDS011;11573;51.334;3.244;2023-02-11T03:02:35;27.65;;;6.50;;
22812;SDS011;11573;51.334;3.244;2023-02-11T03:05:24;25.83;;;7.10;;
22812;SDS011;11573;51.334;3.244;2023-02-11T03:08:11;25.88;;;7.30;;
22812;SDS011;11573;51.334;3.244;2023-02-11T03:10:48;30.35;;;7.82;;
22812;SDS011;11573;51.334;3.244;2023-02-11T03:13:19;24.15;;;7.03;;
22812;SDS011;11573;51.334;3.244;2023-02-11T03:15:52;32.20;;;7.88;;
22812;SDS011;11573;51.334;3.244;2023-02-11T03:18:23;23.38;;;7.82;;
22812;SDS011;11573;51.334;3.244;2023-02-11T03:20:54;26.10;;;8.25;;
22812;SDS011;11573;51.334;3.244;2023-02-11T03:23:25;23.63;;;7.72;;
22812;SDS011;11573;51.334;3.244;2023-02-11T03:26:58;30.85;;;7.40;;
22812;SDS011;11573;51.334;3.244;2023-02-11T03:29:00;33.72;;;8.85;;
22812;SDS011;11573;51.334;3.244;2023-02-11T03:31:36;30.38;;;8.63;;
22812;SDS011;11573;51.334;3.244;2023-02-11T03:34:28;20.25;;;7.32;;
22812;SDS011;11573;51.334;3.244;2023-02-11T03:37:47;34.38;;;7.15;;
22812;SDS011;11573;51.334;3.244;2023-02-11T03:39:55;22.95;;;7.50;;
22812;SDS011;11573;51.334;3.244;2023-02-11T03:45:05;26.95;;;7.55;;
22812;SDS011;11573;51.334;3.244;2023-02-11T03:47:37;35.10;;;7.95;;
22812;SDS011;11573;51.334;3.244;2023-02-11T03:50:12;33.55;;;8.40;;
22812;SDS011;11573;51.334;3.244;2023-02-11T03:52:41;29.10;;;6.65;;
22812;SDS011;11573;51.334;3.244;2023-02-11T03:55:12;33.72;;;7.13;;
22812;SDS011;11573;51.334;3.244;2023-02-11T03:57:45;33.10;;;8.23;;
22812;SDS011;11573;51.334;3.244;2023-02-11T04:00:13;24.85;;;7.55;;
22812;SDS011;11573;51.334;3.244;2023-02-11T04:02:41;39.80;;;9.70;;
22812;SDS011;11573;51.334;3.244;2023-02-11T04:05:10;36.50;;;8.63;;
22812;SDS011;11573;51.334;3.244;2023-02-11T04:07:40;33.75;;;8.27;;
22812;SDS011;11573;51.334;3.244;2023-02-11T04:10:07;33.25;;;8.80;;
22812;SDS011;11573;51.334;3.244;2023-02-11T04:12:35;33.13;;;9.70;;
22812;SDS011;11573;51.334;3.244;2023-02-11T04:15:02;29.98;;;9.25;;
22812;SDS011;11573;51.334;3.244;2023-02-11T04:17:29;40.40;;;11.48;;
22812;SDS011;11573;51.334;3.244;2023-02-11T04:19:56;34.72;;;10.63;;
22812;SDS011;11573;51.334;3.244;2023-02-11T04:22:23;31.60;;;11.20;;
22812;SDS011;11573;51.334;3.244;2023-02-11T04:24:50;35.88;;;11.93;;
22812;SDS011;11573;51.334;3.244;2023-02-11T04:27:17;35.97;;;12.13;;
22812;SDS011;11573;51.334;3.244;2023-02-11T04:29:44;43.10;;;13.20;;
22812;SDS011;11573;51.334;3.244;2023-02-11T04:32:12;51.78;;;15.05;;
22812;SDS011;11573;51.334;3.244;2023-02-11T04:34:39;37.35;;;14.18;;
22812;SDS011;11573;51.334;3.244;2023-02-11T04:37:06;50.72;;;15.88;;
22812;SDS011;11573;51.334;3.244;2023-02-11T04:39:33;37.58;;;15.63;;
22812;SDS011;11573;51.334;3.244;2023-02-11T04:42:01;36.95;;;15.18;;
22812;SDS011;11573;51.334;3.244;2023-02-11T04:44:28;45.85;;;14.90;;
22812;SDS011;11573;51.334;3.244;2023-02-11T04:46:55;36.28;;;14.88;;
22812;SDS011;11573;51.334;3.244;2023-02-11T04:49:23;43.85;;;16.42;;
22812;SDS011;11573;51.334;3.244;2023-02-11T04:51:50;45.05;;;17.27;;
22812;SDS011;11573;51.334;3.244;2023-02-11T04:54:17;44.95;;;16.83;;
22812;SDS011;11573;51.334;3.244;2023-02-11T04:56:44;41.85;;;17.98;;
22812;SDS011;11573;51.334;3.244;2023-02-11T04:59:11;44.42;;;18.48;;
22812;SDS011;11573;51.334;3.244;2023-02-11T05:01:39;45.63;;;17.98;;
22812;SDS011;11573;51.334;3.244;2023-02-11T05:04:06;42.08;;;18.02;;
22812;SDS011;11573;51.334;3.244;2023-02-11T05:06:34;46.78;;;18.92;;
22812;SDS011;11573;51.334;3.244;2023-02-11T05:09:00;45.63;;;17.98;;
22812;SDS011;11573;51.334;3.244;2023-02-11T05:11:28;42.30;;;19.27;;
22812;SDS011;11573;51.334;3.244;2023-02-11T05:13:55;46.58;;;19.70;;
22812;SDS011;11573;51.334;3.244;2023-02-11T05:16:22;45.47;;;19.20;;
22812;SDS011;11573;51.334;3.244;2023-02-11T05:18:49;49.83;;;20.10;;
22812;SDS011;11573;51.334;3.244;2023-02-11T05:21:18;48.70;;;19.98;;
22812;SDS011;11573;51.334;3.244;2023-02-11T05:23:45;46.13;;;19.92;;
22812;SDS011;11573;51.334;3.244;2023-02-11T05:26:13;43.38;;;17.85;;
22812;SDS011;11573;51.334;3.244;2023-02-11T05:28:42;40.85;;;18.65;;
22812;SDS011;11573;51.334;3.244;2023-02-11T05:31:10;42.60;;;19.13;;
22812;SDS011;11573;51.334;3.244;2023-02-11T05:33:40;35.67;;;18.42;;
22812;SDS011;11573;51.334;3.244;2023-02-11T05:36:08;48.85;;;19.23;;
22812;SDS011;11573;51.334;3.244;2023-02-11T05:38:37;42.13;;;18.77;;
22812;SDS011;11573;51.334;3.244;2023-02-11T05:41:05;41.47;;;19.20;;
22812;SDS011;11573;51.334;3.244;2023-02-11T05:43:32;41.00;;;18.60;;
22812;SDS011;11573;51.334;3.244;2023-02-11T05:46:03;40.10;;;19.30;;
22812;SDS011;11573;51.334;3.244;2023-02-11T05:48:31;42.60;;;19.02;;
22812;SDS011;11573;51.334;3.244;2023-02-11T05:50:58;42.67;;;19.08;;
22812;SDS011;11573;51.334;3.244;2023-02-11T05:53:25;46.17;;;20.00;;
22812;SDS011;11573;51.334;3.244;2023-02-11T05:55:52;44.55;;;20.23;;
22812;SDS011;11573;51.334;3.244;2023-02-11T05:58:19;42.83;;;20.60;;
22812;SDS011;11573;51.334;3.244;2023-02-11T06:00:46;48.33;;;20.65;;
22812;SDS011;11573;51.334;3.244;2023-02-11T06:03:13;52.05;;;21.48;;
22812;SDS011;11573;51.334;3.244;2023-02-11T06:05:41;54.20;;;22.33;;
22812;SDS011;11573;51.334;3.244;2023-02-11T06:08:09;52.70;;;22.50;;
22812;SDS011;11573;51.334;3.244;2023-02-11T06:10:37;57.92;;;23.15;;
22812;SDS011;11573;51.334;3.244;2023-02-11T06:13:04;47.05;;;22.27;;
22812;SDS011;11573;51.334;3.244;2023-02-11T06:15:31;51.65;;;22.48;;
22812;SDS011;11573;51.334;3.244;2023-02-11T06:17:58;48.63;;;22.05;;
22812;SDS011;11573;51.334;3.244;2023-02-11T06:20:26;52.33;;;23.67;;
22812;SDS011;11573;51.334;3.244;2023-02-11T06:22:53;53.22;;;23.25;;
22812;SDS011;11573;51.334;3.244;2023-02-11T06:25:20;53.05;;;23.00;;
22812;SDS011;11573;51.334;3.244;2023-02-11T06:27:47;57.17;;;25.83;;
22812;SDS011;11573;51.334;3.244;2023-02-11T06:30:14;52.00;;;25.10;;
22812;SDS011;11573;51.334;3.244;2023-02-11T06:32:41;57.72;;;24.85;;
22812;SDS011;11573;51.334;3.244;2023-02-11T06:35:11;52.08;;;25.23;;
22812;SDS011;11573;51.334;3.244;2023-02-11T06:37:39;61.47;;;25.70;;
22812;SDS011;11573;51.334;3.244;2023-02-11T06:40:07;62.90;;;25.85;;
22812;SDS011;11573;51.334;3.244;2023-02-11T06:42:34;61.33;;;26.50;;
22812;SDS011;11573;51.334;3.244;2023-02-11T06:45:04;69.63;;;29.08;;
22812;SDS011;11573;51.334;3.244;2023-02-11T06:47:31;60.80;;;28.02;;
22812;SDS011;11573;51.334;3.244;2023-02-11T06:49:58;74.25;;;29.48;;
22812;SDS011;11573;51.334;3.244;2023-02-11T06:52:25;61.80;;;29.65;;
22812;SDS011;11573;51.334;3.244;2023-02-11T06:54:52;64.40;;;31.17;;
22812;SDS011;11573;51.334;3.244;2023-02-11T06:57:20;69.45;;;30.10;;
22812;SDS011;11573;51.334;3.244;2023-02-11T06:59:47;71.65;;;31.10;;
22812;SDS011;11573;51.334;3.244;2023-02-11T07:02:14;77.15;;;32.17;;
22812;SDS011;11573;51.334;3.244;2023-02-11T07:04:42;74.65;;;32.13;;
22812;SDS011;11573;51.334;3.244;2023-02-11T07:07:09;67.55;;;32.25;;
22812;SDS011;11573;51.334;3.244;2023-02-11T07:09:37;79.55;;;33.33;;
22812;SDS011;11573;51.334;3.244;2023-02-11T07:12:04;71.88;;;33.47;;
22812;SDS011;11573;51.334;3.244;2023-02-11T07:14:31;74.50;;;33.80;;
22812;SDS011;11573;51.334;3.244;2023-02-11T07:16:58;76.85;;;33.85;;
22812;SDS011;11573;51.334;3.244;2023-02-11T07:19:25;68.25;;;31.83;;
22812;SDS011;11573;51.334;3.244;2023-02-11T07:21:52;75.30;;;35.70;;
22812;SDS011;11573;51.334;3.244;2023-02-11T07:24:20;72.80;;;32.55;;
22812;SDS011;11573;51.334;3.244;2023-02-11T07:26:48;75.78;;;32.47;;
22812;SDS011;11573;51.334;3.244;2023-02-11T07:29:15;73.00;;;33.22;;
22812;SDS011;11573;51.334;3.244;2023-02-11T07:31:42;83.60;;;33.60;;
22812;SDS011;11573;51.334;3.244;2023-02-11T07:34:09;73.90;;;34.25;;
22812;SDS011;11573;51.334;3.244;2023-02-11T07:36:38;80.20;;;35.22;;
22812;SDS011;11573;51.334;3.244;2023-02-11T07:39:05;86.78;;;35.55;;
22812;SDS011;11573;51.334;3.244;2023-02-11T07:41:32;76.70;;;34.45;;
22812;SDS011;11573;51.334;3.244;2023-02-11T07:44:03;74.97;;;34.17;;
22812;SDS011;11573;51.334;3.244;2023-02-11T07:46:31;75.55;;;35.70;;
22812;SDS011;11573;51.334;3.244;2023-02-11T07:49:00;83.95;;;37.00;;
22812;SDS011;11573;51.334;3.244;2023-02-11T07:51:27;72.30;;;35.20;;
22812;SDS011;11573;51.334;3.244;2023-02-11T07:53:56;81.28;;;37.28;;
22812;SDS011;11573;51.334;3.244;2023-02-11T07:56:24;82.25;;;36.13;;
22812;SDS011;11573;51.334;3.244;2023-02-11T07:58:52;77.40;;;35.60;;
22812;SDS011;11573;51.334;3.244;2023-02-11T08:01:21;77.88;;;34.38;;
22812;SDS011;11573;51.334;3.244;2023-02-11T08:03:51;73.38;;;34.03;;
22812;SDS011;11573;51.334;3.244;2023-02-11T08:06:19;72.20;;;33.83;;
22812;SDS011;11573;51.334;3.244;2023-02-11T08:08:48;73.57;;;33.33;;
22812;SDS011;11573;51.334;3.244;2023-02-11T08:11:20;68.90;;;33.63;;
22812;SDS011;11573;51.334;3.244;2023-02-11T08:13:49;75.18;;;33.55;;
22812;SDS011;11573;51.334;3.244;2023-02-11T08:16:18;73.95;;;33.28;;
22812;SDS011;11573;51.334;3.244;2023-02-11T08:18:50;67.65;;;32.20;;
22812;SDS011;11573;51.334;3.244;2023-02-11T08:21:19;69.05;;;32.13;;
22812;SDS011;11573;51.334;3.244;2023-02-11T08:23:46;68.30;;;31.67;;
22812;SDS011;11573;51.334;3.244;2023-02-11T08:26:16;63.80;;;29.10;;
22812;SDS011;11573;51.334;3.244;2023-02-11T08:28:49;66.20;;;30.70;;
22812;SDS011;11573;51.334;3.244;2023-02-11T08:31:19;63.38;;;29.67;;
22812;SDS011;11573;51.334;3.244;2023-02-11T08:33:48;61.83;;;29.15;;
22812;SDS011;11573;51.334;3.244;2023-02-11T08:36:17;61.72;;;27.92;;
22812;SDS011;11573;51.334;3.244;2023-02-11T08:38:46;57.25;;;28.83;;
22812;SDS011;11573;51.334;3.244;2023-02-11T08:41:14;58.30;;;27.10;;
22812;SDS011;11573;51.334;3.244;2023-02-11T08:43:45;55.17;;;27.70;;
22812;SDS011;11573;51.334;3.244;2023-02-11T08:46:13;51.63;;;25.45;;
22812;SDS011;11573;51.334;3.244;2023-02-11T08:48:42;56.40;;;27.58;;
22812;SDS011;11573;51.334;3.244;2023-02-11T08:51:12;51.50;;;25.58;;
22812;SDS011;11573;51.334;3.244;2023-02-11T08:53:43;50.03;;;25.35;;
22812;SDS011;11573;51.334;3.244;2023-02-11T08:56:11;51.47;;;26.42;;
22812;SDS011;11573;51.334;3.244;2023-02-11T08:58:39;45.17;;;22.98;;
22812;SDS011;11573;51.334;3.244;2023-02-11T09:01:14;45.40;;;23.67;;
22812;SDS011;11573;51.334;3.244;2023-02-11T09:03:48;45.97;;;23.13;;
22812;SDS011;11573;51.334;3.244;2023-02-11T09:06:15;48.30;;;22.90;;
22812;SDS011;11573;51.334;3.244;2023-02-11T09:08:45;44.05;;;22.50;;
22812;SDS011;11573;51.334;3.244;2023-02-11T09:11:21;41.40;;;22.02;;
22812;SDS011;11573;51.334;3.244;2023-02-11T09:13:52;39.13;;;21.98;;
22812;SDS011;11573;51.334;3.244;2023-02-11T09:16:27;53.80;;;22.38;;
22812;SDS011;11573;51.334;3.244;2023-02-11T09:18:57;39.45;;;19.92;;
22812;SDS011;11573;51.334;3.244;2023-02-11T09:21:25;35.03;;;19.63;;
22812;SDS011;11573;51.334;3.244;2023-02-11T09:23:53;35.13;;;19.13;;
22812;SDS011;11573;51.334;3.244;2023-02-11T09:26:24;36.53;;;19.42;;
22812;SDS011;11573;51.334;3.244;2023-02-11T09:28:55;47.85;;;20.40;;
22812;SDS011;11573;51.334;3.244;2023-02-11T09:31:23;36.35;;;20.25;;
22812;SDS011;11573;51.334;3.244;2023-02-11T09:33:54;35.08;;;18.38;;
22812;SDS011;11573;51.334;3.244;2023-02-11T09:36:24;46.67;;;18.63;;
22812;SDS011;11573;51.334;3.244;2023-02-11T09:38:56;35.65;;;18.10;;
22812;SDS011;11573;51.334;3.244;2023-02-11T09:41:40;38.60;;;18.73;;
22812;SDS011;11573;51.334;3.244;2023-02-11T09:44:24;35.53;;;17.38;;
22812;SDS011;11573;51.334;3.244;2023-02-11T09:46:54;37.67;;;19.10;;
22812;SDS011;11573;51.334;3.244;2023-02-11T09:49:51;35.00;;;17.13;;
22812;SDS011;11573;51.334;3.244;2023-02-11T09:52:34;36.05;;;17.77;;
22812;SDS011;11573;51.334;3.244;2023-02-11T09:55:27;33.53;;;16.60;;
22812;SDS011;11573;51.334;3.244;2023-02-11T09:57:55;31.92;;;17.38;;
22812;SDS011;11573;51.334;3.244;2023-02-11T10:00:27;34.30;;;14.93;;
22812;SDS011;11573;51.334;3.244;2023-02-11T10:12:01;31.52;;;14.82;;
22812;SDS011;11573;51.334;3.244;2023-02-11T10:23:37;31.80;;;15.73;;
22812;SDS011;11573;51.334;3.244;2023-02-11T10:26:12;32.45;;;15.43;;
22812;SDS011;11573;51.334;3.244;2023-02-11T10:28:46;25.15;;;14.82;;
22812;SDS011;11573;51.334;3.244;2023-02-11T10:31:18;25.67;;;14.20;;
22812;SDS011;11573;51.334;3.244;2023-02-11T10:34:13;27.20;;;13.95;;
22812;SDS011;11573;51.334;3.244;2023-02-11T10:36:41;30.23;;;14.65;;
22812;SDS011;11573;51.334;3.244;2023-02-11T10:39:11;27.02;;;14.23;;
22812;SDS011;11573;51.334;3.244;2023-02-11T10:42:00;22.52;;;13.05;;
22812;SDS011;11573;51.334;3.244;2023-02-11T10:44:31;26.17;;;14.15;;
22812;SDS011;11573;51.334;3.244;2023-02-11T10:47:10;25.52;;;13.70;;
22812;SDS011;11573;51.334;3.244;2023-02-11T10:49:43;25.17;;;13.70;;
22812;SDS011;11573;51.334;3.244;2023-02-11T10:52:21;28.38;;;13.93;;
22812;SDS011;11573;51.334;3.244;2023-02-11T10:57:25;23.52;;;13.48;;
22812;SDS011;11573;51.334;3.244;2023-02-11T10:59:57;23.98;;;13.10;;
22812;SDS011;11573;51.334;3.244;2023-02-11T11:02:30;23.55;;;12.70;;
22812;SDS011;11573;51.334;3.244;2023-02-11T11:05:19;22.33;;;12.40;;
22812;SDS011;11573;51.334;3.244;2023-02-11T11:07:53;28.38;;;13.48;;
22812;SDS011;11573;51.334;3.244;2023-02-11T11:10:38;25.63;;;13.18;;
22812;SDS011;11573;51.334;3.244;2023-02-11T11:13:22;26.08;;;12.35;;
22812;SDS011;11573;51.334;3.244;2023-02-11T11:16:05;21.45;;;11.63;;
22812;SDS011;11573;51.334;3.244;2023-02-11T11:18:33;25.52;;;12.30;;
22812;SDS011;11573;51.334;3.244;2023-02-11T11:21:05;24.52;;;11.80;;
22812;SDS011;11573;51.334;3.244;2023-02-11T11:23:38;28.63;;;12.20;;
22812;SDS011;11573;51.334;3.244;2023-02-11T11:26:11;20.92;;;12.65;;
22812;SDS011;11573;51.334;3.244;2023-02-11T11:29:06;25.52;;;11.50;;
22812;SDS011;11573;51.334;3.244;2023-02-11T11:36:52;21.13;;;12.40;;
22812;SDS011;11573;51.334;3.244;2023-02-11T11:39:23;29.73;;;13.25;;
22812;SDS011;11573;51.334;3.244;2023-02-11T11:42:03;24.63;;;12.98;;
22812;SDS011;11573;51.334;3.244;2023-02-11T11:44:59;25.13;;;13.10;;
22812;SDS011;11573;51.334;3.244;2023-02-11T11:47:34;26.75;;;13.82;;
22812;SDS011;11573;51.334;3.244;2023-02-11T11:50:15;27.38;;;14.35;;
22812;SDS011;11573;51.334;3.244;2023-02-11T11:52:52;23.70;;;13.93;;
22812;SDS011;11573;51.334;3.244;2023-02-11T11:55:32;25.13;;;13.90;;
22812;SDS011;11573;51.334;3.244;2023-02-11T11:58:04;25.02;;;12.57;;
22812;SDS011;11573;51.334;3.244;2023-02-11T12:06:16;26.45;;;13.23;;
22812;SDS011;11573;51.334;3.244;2023-02-11T12:09:20;20.70;;;12.82;;
22812;SDS011;11573;51.334;3.244;2023-02-11T12:20:55;23.83;;;13.80;;
22812;SDS011;11573;51.334;3.244;2023-02-11T12:23:57;22.52;;;13.20;;
22812;SDS011;11573;51.334;3.244;2023-02-11T12:27:00;31.40;;;14.40;;
22812;SDS011;11573;51.334;3.244;2023-02-11T12:41:30;26.40;;;14.10;;
22812;SDS011;11573;51.334;3.244;2023-02-11T12:44:36;23.27;;;13.77;;
22812;SDS011;11573;51.334;3.244;2023-02-11T12:49:52;28.85;;;13.23;;
22812;SDS011;11573;51.334;3.244;2023-02-11T12:55:57;26.83;;;13.07;;
22812;SDS011;11573;51.334;3.244;2023-02-11T12:58:35;22.05;;;12.18;;
22812;SDS011;11573;51.334;3.244;2023-02-11T13:01:19;21.20;;;12.68;;
22812;SDS011;11573;51.334;3.244;2023-02-11T13:06:44;23.75;;;12.27;;
22812;SDS011;11573;51.334;3.244;2023-02-11T13:09:17;25.13;;;12.50;;
22812;SDS011;11573;51.334;3.244;2023-02-11T13:11:53;23.20;;;12.55;;
22812;SDS011;11573;51.334;3.244;2023-02-11T13:14:25;21.88;;;13.07;;
22812;SDS011;11573;51.334;3.244;2023-02-11T13:17:02;25.05;;;13.13;;
22812;SDS011;11573;51.334;3.244;2023-02-11T13:19:43;24.55;;;12.90;;
22812;SDS011;11573;51.334;3.244;2023-02-11T13:22:19;21.17;;;12.05;;
22812;SDS011;11573;51.334;3.244;2023-02-11T13:37:57;23.17;;;13.18;;
22812;SDS011;11573;51.334;3.244;2023-02-11T13:40:37;21.27;;;12.13;;
22812;SDS011;11573;51.334;3.244;2023-02-11T13:43:06;22.33;;;12.63;;
22812;SDS011;11573;51.334;3.244;2023-02-11T13:45:49;23.17;;;12.80;;
22812;SDS011;11573;51.334;3.244;2023-02-11T13:48:22;21.20;;;13.13;;
22812;SDS011;11573;51.334;3.244;2023-02-11T13:53:22;23.35;;;12.85;;
22812;SDS011;11573;51.334;3.244;2023-02-11T13:55:50;21.33;;;12.52;;
22812;SDS011;11573;51.334;3.244;2023-02-11T14:00:52;19.70;;;11.70;;
22812;SDS011;11573;51.334;3.244;2023-02-11T14:06:14;21.15;;;12.07;;
22812;SDS011;11573;51.334;3.244;2023-02-11T14:12:21;20.38;;;12.23;;
22812;SDS011;11573;51.334;3.244;2023-02-11T14:17:31;23.27;;;13.13;;
22812;SDS011;11573;51.334;3.244;2023-02-11T14:20:00;24.08;;;12.40;;
22812;SDS011;11573;51.334;3.244;2023-02-11T14:22:41;20.50;;;11.88;;
22812;SDS011;11573;51.334;3.244;2023-02-11T14:25:15;20.88;;;11.93;;
22812;SDS011;11573;51.334;3.244;2023-02-11T14:27:55;21.30;;;12.27;;
22812;SDS011;11573;51.334;3.244;2023-02-11T14:30:41;25.95;;;11.93;;
22812;SDS011;11573;51.334;3.244;2023-02-11T14:39:26;24.17;;;10.90;;
22812;SDS011;11573;51.334;3.244;2023-02-11T14:42:12;22.33;;;12.93;;
22812;SDS011;11573;51.334;3.244;2023-02-11T14:44:44;25.55;;;12.40;;
22812;SDS011;11573;51.334;3.244;2023-02-11T14:47:16;22.50;;;11.05;;
22812;SDS011;11573;51.334;3.244;2023-02-11T14:49:46;29.33;;;12.35;;
22812;SDS011;11573;51.334;3.244;2023-02-11T14:54:51;21.55;;;12.43;;
22812;SDS011;11573;51.334;3.244;2023-02-11T14:57:30;18.75;;;11.75;;
22812;SDS011;11573;51.334;3.244;2023-02-11T14:59:59;22.75;;;12.23;;
22812;SDS011;11573;51.334;3.244;2023-02-11T15:02:33;18.95;;;11.52;;
22812;SDS011;11573;51.334;3.244;2023-02-11T15:07:50;22.48;;;12.02;;
22812;SDS011;11573;51.334;3.244;2023-02-11T15:13:16;22.90;;;12.75;;
22812;SDS011;11573;51.334;3.244;2023-02-11T15:15:46;17.90;;;11.73;;
22812;SDS011;11573;51.334;3.244;2023-02-11T15:18:18;22.58;;;12.77;;
22812;SDS011;11573;51.334;3.244;2023-02-11T15:20:48;20.20;;;12.18;;
22812;SDS011;11573;51.334;3.244;2023-02-11T15:23:20;18.77;;;11.95;;
22812;SDS011;11573;51.334;3.244;2023-02-11T15:25:50;26.88;;;11.95;;
22812;SDS011;11573;51.334;3.244;2023-02-11T15:28:25;20.70;;;11.45;;
22812;SDS011;11573;51.334;3.244;2023-02-11T15:33:46;19.40;;;11.43;;
22812;SDS011;11573;51.334;3.244;2023-02-11T15:36:13;19.90;;;11.98;;
22812;SDS011;11573;51.334;3.244;2023-02-11T15:38:41;20.80;;;11.10;;
22812;SDS011;11573;51.334;3.244;2023-02-11T15:44:03;24.60;;;11.82;;
22812;SDS011;11573;51.334;3.244;2023-02-11T15:46:35;22.48;;;12.10;;
22812;SDS011;11573;51.334;3.244;2023-02-11T15:49:12;25.23;;;12.43;;
22812;SDS011;11573;51.334;3.244;2023-02-11T15:51:44;22.77;;;11.13;;
22812;SDS011;11573;51.334;3.244;2023-02-11T15:54:19;19.70;;;12.25;;
22812;SDS011;11573;51.334;3.244;2023-02-11T15:56:53;19.67;;;11.75;;
22812;SDS011;11573;51.334;3.244;2023-02-11T15:59:26;25.42;;;11.73;;
22812;SDS011;11573;51.334;3.244;2023-02-11T16:01:56;20.80;;;11.63;;
22812;SDS011;11573;51.334;3.244;2023-02-11T16:04:30;18.52;;;11.77;;
22812;SDS011;11573;51.334;3.244;2023-02-11T16:06:58;22.25;;;12.07;;
22812;SDS011;11573;51.334;3.244;2023-02-11T16:09:30;18.85;;;11.05;;
22812;SDS011;11573;51.334;3.244;2023-02-11T16:12:01;18.27;;;10.55;;
22812;SDS011;11573;51.334;3.244;2023-02-11T16:14:44;20.23;;;11.02;;
22812;SDS011;11573;51.334;3.244;2023-02-11T16:17:20;22.15;;;12.73;;
22812;SDS011;11573;51.334;3.244;2023-02-11T16:19:52;18.45;;;11.07;;
22812;SDS011;11573;51.334;3.244;2023-02-11T16:24:56;23.70;;;11.38;;
22812;SDS011;11573;51.334;3.244;2023-02-11T16:27:36;19.17;;;11.38;;
22812;SDS011;11573;51.334;3.244;2023-02-11T16:30:06;22.13;;;12.63;;
22812;SDS011;11573;51.334;3.244;2023-02-11T16:32:49;26.33;;;13.45;;
22812;SDS011;11573;51.334;3.244;2023-02-11T16:35:19;22.35;;;12.95;;
22812;SDS011;11573;51.334;3.244;2023-02-11T16:37:46;21.02;;;12.70;;
22812;SDS011;11573;51.334;3.244;2023-02-11T16:40:15;22.98;;;13.57;;
22812;SDS011;11573;51.334;3.244;2023-02-11T16:42:42;19.23;;;12.43;;
22812;SDS011;11573;51.334;3.244;2023-02-11T16:45:09;23.95;;;12.60;;
22812;SDS011;11573;51.334;3.244;2023-02-11T16:47:37;22.77;;;11.75;;
22812;SDS011;11573;51.334;3.244;2023-02-11T16:50:08;22.50;;;13.00;;
22812;SDS011;11573;51.334;3.244;2023-02-11T16:52:44;19.02;;;11.63;;
22812;SDS011;11573;51.334;3.244;2023-02-11T16:55:12;24.65;;;12.70;;
22812;SDS011;11573;51.334;3.244;2023-02-11T16:57:40;19.00;;;10.75;;
22812;SDS011;11573;51.334;3.244;2023-02-11T17:00:07;26.25;;;12.60;;
22812;SDS011;11573;51.334;3.244;2023-02-11T17:02:36;22.10;;;11.65;;
22812;SDS011;11573;51.334;3.244;2023-02-11T17:05:05;21.45;;;12.32;;
22812;SDS011;11573;51.334;3.244;2023-02-11T17:07:34;23.23;;;12.23;;
22812;SDS011;11573;51.334;3.244;2023-02-11T17:10:01;20.73;;;12.13;;
22812;SDS011;11573;51.334;3.244;2023-02-11T17:12:28;22.15;;;12.45;;
22812;SDS011;11573;51.334;3.244;2023-02-11T17:14:55;24.35;;;12.35;;